Flight Track Log - Related Links

Times and Time Zones

All times are in EDT time to prevent confusion due to time zone crossing. See the VRT51 flight status page for this flight to view local times or setup timezone preferences in your user account.

Time Position Orientation Groundspeed Altitude Reporting Facility
EDT Latitude Longitude Course Direction KTS MPH feet Rate Location/Type
Wed 01:22:54 PM 36.0833 -86.7000 270° West 193 222 2,000  Level Nashville TRACON
Wed 01:23:24 PM 36.0833 -86.7333 270° West 211 243 3,100 2,467 Climbing Nashville TRACON
Wed 01:24:24 PM 36.1167 -86.8167 296° West 255 293 5,700 3,050 Climbing Nashville TRACON
Wed 01:25:24 PM 36.1500 -86.8833 302° West 261 300 9,200 3,250 Climbing Nashville TRACON
Wed 01:26:00 PM 36.1453 -86.9539 265° West 259 298 10,900 2,625 Climbing Memphis Center
Wed 01:27:00 PM 36.1308 -87.0394 258° West 329 379 13,400 2,050 Climbing Memphis Center
Wed 01:28:00 PM 36.1092 -87.1636 258° West 348 400 15,000 1,650 Climbing Memphis Center
Wed 01:29:00 PM 36.0853 -87.2931 257° West 383 441 16,700 1,950 Climbing Memphis Center
Wed 01:30:00 PM 36.0553 -87.4303 255° West 403 464 18,900 3,050 Climbing Memphis Center
Wed 01:31:00 PM 36.0292 -87.5669 257° West 414 476 22,800 2,100 Climbing Memphis Center
Wed 01:32:00 PM 36.0047 -87.6858 256° West 409 471 23,100 1,500 Climbing Memphis Center
Wed 01:33:00 PM 35.9783 -87.8203 256° West 409 471 25,800 2,850 Climbing Memphis Center
Wed 01:34:00 PM 35.9517 -87.9544 256° West 409 471 28,800 2,450 Climbing Memphis Center
Wed 01:35:00 PM 35.9250 -88.0781 255° West 387 445 30,700 1,600 Climbing Memphis Center
Wed 01:36:00 PM 35.9000 -88.2019 256° West 380 437 32,000 650 Climbing Memphis Center
Wed 01:37:00 PM 35.8733 -88.3436 257° West 394 453 32,000  Level Memphis Center
Wed 01:38:00 PM 35.8383 -88.5056 255° West 422 486 32,000  Level Memphis Center
Wed 01:39:00 PM 35.8092 -88.6547 256° West 442 509 32,000  Level Memphis Center
Wed 01:40:00 PM 35.7797 -88.8089 257° West 456 525 32,000  Level Memphis Center
Wed 01:41:00 PM 35.7503 -88.9578 256° West 456 525 32,000  Level Memphis Center
Wed 01:42:00 PM 35.7186 -89.1117 256° West 456 525 32,000  Level Memphis Center
Wed 01:43:00 PM 35.6864 -89.2300 251° West 456 525 32,000  Level Memphis Center
Wed 01:44:00 PM 35.6503 -89.3964 255° West 456 525 32,000  Level Memphis Center
Wed 01:45:00 PM 35.6075 -89.5603 252° West 462 532 32,000  Level Memphis Center
Wed 01:46:00 PM 35.5689 -89.7086 252° West 462 532 32,000  Level Memphis Center
Wed 01:47:00 PM 35.5300 -89.8544 252° West 462 532 32,000  Level Memphis Center
Wed 01:48:00 PM 35.4908 -90.0078 253° West 462 532 32,000 -450 Level Memphis Center
Wed 01:49:00 PM 35.4514 -90.1558 252° West 462 532 31,100 -1,200 Descending Memphis Center
Wed 01:50:00 PM 35.4119 -90.2983 251° West 451 519 29,600 -1,500 Descending Memphis Center
Wed 01:51:00 PM 35.3725 -90.4461 252° West 451 519 28,100 -1,550 Descending Memphis Center
Wed 01:52:00 PM 35.3325 -90.5964 252° West 462 532 26,500 -1,550 Descending Memphis Center
Wed 01:53:00 PM 35.2906 -90.7489 251° West 462 532 25,000 -1,250 Descending Memphis Center
Wed 01:54:00 PM 35.2461 -90.9011 250° West 468 539 24,000 -650 Descending Memphis Center
Wed 01:55:00 PM 35.2100 -91.0433 253° West 456 525 23,700 -1,700 Descending Memphis Center
Wed 01:56:00 PM 35.1717 -91.1800 251° West 446 513 20,600 -3,450 Descending Memphis Center
Wed 01:57:00 PM 35.1372 -91.3119 252° West 417 480 16,800 -3,709 Descending Memphis Center
Wed 01:57:50 PM 35.1053 -91.4156 249° West 385 443 13,800 -3,024 Descending Memphis Center
Wed 01:59:03 PM 35.0475 -91.5544 243° Southwest 367 422 10,600 -1,795 Descending Memphis Center
Wed 01:59:57 PM 35.0175 -91.6528 250° West 360 414 10,000 -313 Descending Memphis Center
Wed 02:00:58 PM 34.9850 -91.7639 250° West 317 365 10,000 -738 Level Memphis Center
Wed 02:01:59 PM 34.9608 -91.8547 252° West 290 334 8,500 -1,770 Descending Memphis Center
Wed 02:03:00 PM 34.9367 -91.9531 253° West 284 327 6,400 -1,967 Descending Memphis Center
Wed 02:03:00 PM 34.9367 -91.9531 253° West 302 348 6,500 -1,900 Climbing Memphis Center
Wed 02:04:00 PM 34.9083 -92.0386 248° West 284 327 4,500 -1,250 Descending Memphis Center
Wed 02:05:00 PM 34.8739 -92.1189 242° Southwest 274 315 4,000 -639 Descending Memphis Center
Wed 02:06:02 PM 34.8231 -92.1811 225° Southwest 232 267 3,200 -1,150 Descending Memphis Center
Wed 02:07:00 PM 34.7911 -92.2258 229° Southwest 233 268 1,700 -1,068 Descending Memphis Center
Wed 02:08:00 PM 34.7528 -92.2706 224° Southwest 212 244 1,100 4,150 Descending Memphis Center
Wed 02:09:00 PM 34.7103 -92.3200 224° Southwest 212 244 10,000 4,450 Climbing Memphis Center
Wed 02:10:00 PM 34.6678 -92.3697 224° Southwest 212 244 10,000  Level Memphis Center
Wed 02:11:00 PM 34.6253 -92.4192 224° Southwest 212 244 10,000  Level Memphis Center
Wed 02:12:00 PM 34.5997 -92.4486 223° Southwest 212 244 10,000  Level Memphis Center
Wed 02:13:00 PM 34.6510 -92.3471 58° Northeast  Level FlightAware Approximate
Wed 02:20:00 PM 34.7167 -92.2167 59° Northeast  Level FlightAware Approximate
Wed 02:21:00 PM 34.7294 -92.2248 59° Northeast  Level Estimated
Wed 02:22:00 PM 34.7294 -92.2248 59° Northeast  Level Estimated

Login

Don't have an account? Register now (free) for customized features, flight alerts, and more!